createdAt,value
2018-12-01T00:02:19.650Z,14.38
2018-12-01T00:04:46.966Z,16.07
2018-12-01T00:07:14.303Z,14.60
2018-12-01T00:09:41.622Z,13.72
2018-12-01T00:12:08.973Z,13.88
2018-12-01T00:14:36.307Z,13.22
2018-12-01T00:17:03.701Z,15.50
2018-12-01T00:19:31.035Z,12.43
2018-12-01T00:21:58.386Z,14.03
2018-12-01T00:24:26.002Z,13.35
2018-12-01T00:26:53.336Z,14.65
2018-12-01T00:29:20.660Z,15.30
2018-12-01T00:31:47.982Z,18.17
2018-12-01T00:34:15.314Z,15.40
2018-12-01T00:36:42.630Z,18.70
2018-12-01T00:39:09.976Z,18.40
2018-12-01T00:41:37.295Z,14.38
2018-12-01T00:44:04.674Z,17.23
2018-12-01T00:46:32.031Z,20.52
2018-12-01T00:49:00.407Z,15.75
2018-12-01T00:51:27.762Z,17.50
2018-12-01T00:53:55.106Z,14.63
2018-12-01T00:56:22.443Z,15.30
2018-12-01T00:58:49.758Z,16.85
2018-12-01T01:01:17.116Z,14.80
2018-12-01T01:03:44.442Z,15.85
2018-12-01T01:06:11.794Z,17.50
2018-12-01T01:08:39.114Z,17.48
2018-12-01T01:11:06.467Z,15.78
2018-12-01T01:13:33.823Z,14.70
2018-12-01T01:16:01.161Z,17.57
2018-12-01T01:18:28.486Z,17.57
2018-12-01T01:20:55.830Z,17.10
2018-12-01T01:23:23.191Z,17.17
2018-12-01T01:25:50.539Z,15.32
2018-12-01T01:28:17.877Z,14.85
2018-12-01T01:30:45.326Z,16.00
2018-12-01T01:33:25.294Z,18.87
2018-12-01T01:35:52.690Z,17.05
2018-12-01T01:38:20.016Z,15.48
2018-12-01T01:40:51.927Z,16.90
2018-12-01T01:43:19.286Z,17.25
2018-12-01T01:45:47.141Z,17.35
2018-12-01T01:48:14.503Z,18.15
2018-12-01T01:50:41.835Z,18.40
2018-12-01T01:53:09.174Z,20.68
2018-12-01T01:55:36.538Z,19.60
2018-12-01T01:58:03.911Z,18.60
2018-12-01T02:00:31.295Z,19.60
2018-12-01T02:02:58.623Z,19.60
2018-12-01T02:05:26.162Z,17.92
2018-12-01T02:07:53.487Z,16.52
2018-12-01T02:10:21.120Z,18.17
2018-12-01T02:12:48.443Z,18.42
2018-12-01T02:15:15.806Z,17.52
2018-12-01T02:17:43.145Z,14.98
2018-12-01T02:20:12.576Z,16.20
2018-12-01T02:22:40.063Z,17.20
2018-12-01T02:25:09.680Z,14.40
2018-12-01T02:27:37.063Z,19.12
2018-12-01T02:30:06.944Z,15.83
2018-12-01T02:32:34.267Z,15.68
2018-12-01T02:35:02.621Z,15.28
2018-12-01T02:37:29.993Z,15.63
2018-12-01T02:39:57.336Z,14.38
2018-12-01T02:42:24.667Z,16.05
2018-12-01T02:46:07.515Z,13.72
2018-12-01T02:48:34.827Z,17.12
2018-12-01T02:51:02.165Z,14.15
2018-12-01T02:53:29.495Z,15.18
2018-12-01T02:55:57.087Z,15.78
2018-12-01T02:58:24.411Z,14.38
2018-12-01T03:00:51.770Z,14.98
2018-12-01T03:03:19.099Z,17.40
2018-12-01T03:05:46.418Z,15.18
2018-12-01T03:08:13.787Z,17.20
2018-12-01T03:10:41.115Z,15.98
2018-12-01T03:13:08.774Z,13.38
2018-12-01T03:15:36.162Z,14.00
2018-12-01T03:18:03.559Z,12.47
2018-12-01T03:20:30.899Z,12.45
2018-12-01T03:22:58.214Z,14.60
2018-12-01T03:25:25.569Z,11.43
2018-12-01T03:27:54.036Z,10.75
2018-12-01T03:30:22.899Z,11.38
2018-12-01T03:32:50.962Z,15.05
2018-12-01T03:35:18.927Z,12.15
2018-12-01T03:37:47.313Z,13.13
2018-12-01T03:40:15.503Z,14.07
2018-12-01T03:42:43.863Z,10.70
2018-12-01T03:45:15.014Z,11.48
2018-12-01T03:47:42.391Z,11.95
2018-12-01T03:50:10.856Z,11.70
2018-12-01T03:52:38.242Z,10.82
2018-12-01T03:55:15.695Z,11.83
2018-12-01T03:57:43.042Z,11.55
2018-12-01T04:00:10.380Z,9.53
2018-12-01T04:02:37.726Z,12.55
2018-12-01T04:05:05.097Z,9.75
2018-12-01T04:07:32.431Z,11.10
2018-12-01T04:09:59.778Z,11.85
2018-12-01T04:12:27.194Z,10.63
2018-12-01T04:14:54.520Z,10.00
2018-12-01T04:17:21.881Z,11.90
2018-12-01T04:19:49.194Z,11.70
2018-12-01T04:22:16.531Z,12.23
2018-12-01T04:24:43.887Z,10.30
2018-12-01T04:27:11.246Z,12.50
2018-12-01T04:29:38.554Z,12.07
2018-12-01T04:32:05.930Z,12.15
2018-12-01T04:34:33.281Z,11.38
2018-12-01T04:37:00.624Z,11.75
2018-12-01T04:39:27.978Z,11.78
2018-12-01T04:41:55.314Z,14.50
2018-12-01T04:44:22.659Z,12.50
2018-12-01T04:46:51.031Z,10.60
2018-12-01T04:49:18.301Z,13.43
2018-12-01T04:51:45.652Z,12.35
2018-12-01T04:54:13.743Z,11.75
2018-12-01T04:56:41.070Z,11.38
2018-12-01T04:59:08.370Z,11.88
2018-12-01T05:01:35.841Z,11.75
2018-12-01T05:04:03.166Z,12.88
2018-12-01T05:06:30.512Z,9.63
2018-12-01T05:08:57.833Z,12.28
2018-12-01T05:11:25.151Z,11.83
2018-12-01T05:13:52.499Z,10.55
2018-12-01T05:16:19.822Z,13.65
2018-12-01T05:18:47.153Z,12.90
2018-12-01T05:21:17.499Z,11.57
2018-12-01T05:23:44.871Z,18.35
2018-12-01T05:26:12.228Z,13.18
2018-12-01T05:28:39.598Z,14.25
2018-12-01T05:31:06.938Z,11.03
2018-12-01T05:33:35.284Z,16.40
2018-12-01T05:36:02.671Z,16.87
2018-12-01T05:38:30.007Z,15.00
2018-12-01T05:40:57.344Z,13.38
2018-12-01T05:43:24.697Z,14.87
2018-12-01T05:45:52.026Z,16.32
2018-12-01T05:48:19.347Z,16.20
2018-12-01T05:50:46.699Z,14.28
2018-12-01T05:53:14.062Z,17.02
2018-12-01T05:55:41.415Z,13.65
2018-12-01T05:58:08.751Z,13.32
2018-12-01T06:00:36.134Z,16.85
2018-12-01T06:03:03.839Z,11.73
2018-12-01T06:05:31.150Z,13.65
2018-12-01T06:07:59.519Z,14.38
2018-12-01T06:10:26.946Z,13.43
2018-12-01T06:12:59.159Z,14.98
2018-12-01T06:15:26.534Z,11.68
2018-12-01T06:17:53.874Z,14.80
2018-12-01T06:20:23.465Z,12.85
2018-12-01T06:22:51.666Z,11.50
2018-12-01T06:25:21.144Z,10.05
2018-12-01T06:27:48.486Z,12.75
2018-12-01T06:30:16.925Z,10.72
2018-12-01T06:32:44.752Z,8.78
2018-12-01T06:35:12.168Z,12.10
2018-12-01T06:37:39.774Z,13.88
2018-12-01T06:40:12.034Z,11.18
2018-12-01T06:42:38.206Z,10.60
2018-12-01T06:45:07.594Z,11.12
2018-12-01T06:47:34.970Z,13.55
2018-12-01T06:50:02.533Z,10.60
2018-12-01T06:52:29.843Z,12.35
2018-12-01T06:54:57.177Z,13.83
2018-12-01T06:57:24.499Z,12.65
2018-12-01T06:59:51.846Z,14.53
2018-12-01T07:02:22.111Z,17.32
2018-12-01T07:04:49.434Z,14.38
2018-12-01T07:07:16.746Z,16.75
2018-12-01T07:09:44.082Z,14.58
2018-12-01T07:12:11.443Z,17.17
2018-12-01T07:14:38.762Z,20.97
2018-12-01T07:17:06.191Z,16.15
2018-12-01T07:19:33.496Z,18.87
2018-12-01T07:22:01.538Z,19.98
2018-12-01T07:24:28.878Z,14.65
2018-12-01T07:26:56.294Z,17.85
2018-12-01T07:29:24.225Z,21.00
2018-12-01T07:31:51.538Z,22.40
2018-12-01T07:34:18.850Z,19.77
2018-12-01T07:36:46.198Z,16.23
2018-12-01T07:39:14.133Z,30.43
2018-12-01T07:41:41.467Z,30.92
2018-12-01T07:44:08.807Z,16.45
2018-12-01T07:46:36.145Z,20.92
2018-12-01T07:49:03.738Z,18.02
2018-12-01T07:51:31.083Z,17.05
2018-12-01T07:53:58.403Z,16.37
2018-12-01T07:56:25.793Z,25.80
2018-12-01T07:58:53.144Z,14.20
2018-12-01T08:01:21.103Z,18.27
2018-12-01T08:03:48.422Z,11.20
2018-12-01T08:06:15.755Z,10.13
2018-12-01T08:08:43.110Z,9.83
2018-12-01T08:11:10.458Z,9.40
2018-12-01T08:13:38.000Z,9.03
2018-12-01T08:16:05.358Z,8.05
2018-12-01T08:18:32.707Z,9.20
2018-12-01T08:21:00.059Z,7.37
2018-12-01T08:23:27.388Z,9.80
2018-12-01T08:25:54.742Z,8.28
2018-12-01T08:28:23.250Z,8.85
2018-12-01T08:30:50.732Z,7.55
2018-12-01T08:33:18.582Z,8.50
2018-12-01T08:35:46.131Z,6.80
2018-12-01T08:38:13.518Z,8.03
2018-12-01T08:40:40.889Z,7.15
2018-12-01T08:43:08.239Z,8.18
2018-12-01T08:45:35.574Z,8.38
2018-12-01T08:48:03.008Z,9.18
2018-12-01T08:50:31.379Z,7.65
2018-12-01T08:52:58.719Z,9.70
2018-12-01T08:55:26.185Z,6.78
2018-12-01T08:57:54.018Z,7.80
2018-12-01T09:00:23.808Z,6.67
2018-12-01T09:02:53.614Z,6.37
2018-12-01T09:05:20.964Z,7.50
2018-12-01T09:07:48.321Z,5.70
2018-12-01T09:10:15.751Z,6.65
2018-12-01T09:12:43.073Z,5.67
2018-12-01T09:15:11.183Z,9.53
2018-12-01T09:17:38.715Z,6.78
2018-12-01T09:20:08.595Z,7.55
2018-12-01T09:22:35.946Z,14.68
2018-12-01T09:25:03.620Z,6.22
2018-12-01T09:27:30.994Z,18.85
2018-12-01T09:29:58.322Z,9.55
2018-12-01T09:32:25.699Z,6.47
2018-12-01T09:34:53.039Z,5.65
2018-12-01T09:37:20.386Z,5.58
2018-12-01T09:39:47.787Z,7.45
2018-12-01T09:42:15.853Z,9.40
2018-12-01T09:44:43.185Z,7.12
2018-12-01T09:47:10.523Z,4.97
2018-12-01T09:49:37.867Z,6.17
2018-12-01T09:52:05.589Z,8.90
2018-12-01T09:54:32.952Z,3.58
2018-12-01T09:57:00.303Z,4.22
2018-12-01T09:59:27.631Z,3.00
2018-12-01T10:01:55.019Z,3.30
2018-12-01T10:04:22.351Z,2.85
2018-12-01T10:06:50.739Z,3.87
2018-12-01T10:09:18.120Z,3.85
2018-12-01T10:11:50.383Z,4.08
2018-12-01T10:14:12.839Z,7.70
2018-12-01T10:16:40.209Z,4.53
2018-12-01T10:19:07.552Z,4.00
2018-12-01T10:21:34.918Z,3.75
2018-12-01T10:24:02.265Z,3.67
2018-12-01T10:26:29.701Z,3.65
2018-12-01T10:28:57.034Z,3.67
2018-12-01T10:31:24.371Z,3.00
2018-12-01T10:33:51.707Z,2.20
2018-12-01T10:36:19.055Z,3.35
2018-12-01T10:38:47.066Z,3.15
2018-12-01T10:41:14.412Z,2.65
2018-12-01T10:43:41.754Z,3.70
2018-12-01T10:46:09.135Z,2.92
2018-12-01T10:48:36.482Z,2.75
2018-12-01T10:51:03.851Z,2.47
2018-12-01T10:53:31.170Z,7.85
2018-12-01T10:55:58.547Z,1.60
2018-12-01T10:58:25.911Z,3.70
2018-12-01T11:00:59.003Z,8.13
2018-12-01T11:03:46.606Z,2.40
2018-12-01T11:06:14.959Z,2.42
2018-12-01T11:08:42.335Z,2.75
2018-12-01T11:11:09.731Z,3.15
2018-12-01T11:13:37.127Z,1.65
2018-12-01T11:16:05.902Z,1.87
2018-12-01T11:18:33.259Z,3.35
2018-12-01T11:21:00.663Z,4.35
2018-12-01T11:23:27.931Z,1.70
2018-12-01T11:25:55.212Z,2.77
2018-12-01T11:28:22.611Z,1.97
2018-12-01T11:30:50.012Z,2.40
2018-12-01T11:33:17.367Z,2.77
2018-12-01T11:35:44.914Z,2.47
2018-12-01T11:38:12.234Z,1.87
2018-12-01T11:40:39.589Z,1.50
2018-12-01T11:43:07.914Z,4.53
2018-12-01T11:45:35.362Z,5.10
2018-12-01T11:48:04.829Z,2.80
2018-12-01T11:50:37.225Z,1.82
2018-12-01T11:53:05.146Z,1.82
2018-12-01T11:55:32.566Z,2.10
2018-12-01T11:57:59.956Z,2.72
2018-12-01T12:00:27.334Z,3.30
2018-12-01T12:02:55.212Z,3.33
2018-12-01T12:05:22.664Z,3.17
2018-12-01T12:08:01.496Z,1.50
2018-12-01T12:10:29.091Z,2.47
2018-12-01T12:12:56.433Z,2.80
2018-12-01T12:15:24.569Z,2.27
2018-12-01T12:18:00.790Z,2.13
2018-12-01T12:20:29.882Z,2.10
2018-12-01T12:22:57.299Z,2.20
2018-12-01T12:25:24.653Z,3.63
2018-12-01T12:27:51.986Z,6.80
2018-12-01T12:30:23.402Z,1.20
2018-12-01T12:32:47.515Z,1.27
2018-12-01T12:35:15.967Z,1.50
2018-12-01T12:37:44.029Z,2.73
2018-12-01T12:40:16.679Z,5.03
2018-12-01T12:42:45.075Z,3.10
2018-12-01T12:45:13.789Z,3.10
2018-12-01T12:47:41.201Z,9.13
2018-12-01T12:50:16.463Z,3.22
2018-12-01T12:52:44.851Z,5.87
2018-12-01T12:55:14.135Z,6.97
2018-12-01T12:57:41.521Z,4.50
2018-12-01T13:00:11.853Z,4.30
2018-12-01T13:02:39.296Z,1.95
2018-12-01T13:05:11.835Z,3.00
2018-12-01T13:07:39.252Z,1.20
2018-12-01T13:10:10.155Z,1.62
2018-12-01T13:12:37.691Z,2.55
2018-12-01T13:15:07.105Z,5.75
2018-12-01T13:17:34.430Z,4.03
2018-12-01T13:20:01.762Z,1.67
2018-12-01T13:22:29.087Z,1.30
2018-12-01T13:24:57.084Z,2.20
2018-12-01T13:27:24.438Z,1.77
2018-12-01T13:29:51.802Z,1.65
2018-12-01T13:32:19.214Z,1.40
2018-12-01T13:34:46.614Z,1.85
2018-12-01T13:37:13.982Z,2.77
2018-12-01T13:39:41.334Z,2.00
2018-12-01T13:42:09.732Z,1.60
2018-12-01T13:44:37.115Z,1.45
2018-12-01T13:47:04.982Z,2.80
2018-12-01T13:49:32.334Z,2.85
2018-12-01T13:52:00.601Z,1.67
2018-12-01T13:54:27.116Z,1.17
2018-12-01T13:56:54.511Z,2.05
2018-12-01T13:59:21.852Z,3.50
2018-12-01T14:01:49.198Z,1.32
2018-12-01T14:04:16.537Z,1.65
2018-12-01T14:06:43.970Z,2.17
2018-12-01T14:09:12.438Z,1.50
2018-12-01T14:11:39.798Z,1.27
2018-12-01T14:14:07.123Z,0.95
2018-12-01T14:16:34.479Z,2.08
2018-12-01T14:19:01.851Z,1.20
2018-12-01T14:21:29.227Z,1.85
2018-12-01T14:23:56.714Z,1.10
2018-12-01T14:26:24.179Z,1.42
2018-12-01T14:28:51.543Z,1.80
2018-12-01T14:31:18.919Z,2.67
2018-12-01T14:33:46.251Z,1.55
2018-12-01T14:36:13.607Z,1.57
2018-12-01T14:38:40.986Z,2.37
2018-12-01T14:41:08.370Z,2.42
2018-12-01T14:43:35.707Z,1.50
2018-12-01T14:46:03.083Z,2.07
2018-12-01T14:48:30.473Z,1.80
2018-12-01T14:50:57.859Z,1.90
2018-12-01T14:53:25.327Z,2.23
2018-12-01T14:55:52.730Z,1.53
2018-12-01T14:58:20.075Z,1.17
2018-12-01T15:00:47.437Z,3.70
2018-12-01T15:03:14.792Z,3.13
2018-12-01T15:05:42.164Z,8.97
2018-12-01T15:08:09.519Z,9.13
2018-12-01T15:10:36.875Z,21.23
2018-12-01T15:13:04.331Z,22.53
2018-12-01T15:15:31.691Z,6.35
2018-12-01T15:17:59.058Z,1.52
2018-12-01T15:20:26.560Z,22.48
2018-12-01T15:22:55.763Z,7.30
2018-12-01T15:25:24.216Z,6.12
2018-12-01T15:27:51.591Z,1.90
2018-12-01T15:30:20.059Z,3.55
2018-12-01T15:33:22.499Z,6.55
2018-12-01T15:35:49.867Z,10.85
2018-12-01T15:38:17.266Z,3.75
2018-12-01T15:40:47.507Z,4.50
2018-12-01T15:43:14.857Z,19.85
2018-12-01T15:45:42.244Z,18.85
2018-12-01T15:48:10.613Z,18.73
2018-12-01T15:50:38.201Z,13.90
2018-12-01T15:53:08.166Z,13.48
2018-12-01T15:55:35.469Z,3.27
2018-12-01T15:58:02.812Z,2.67
2018-12-01T16:00:30.124Z,12.35
2018-12-01T16:02:57.442Z,4.03
2018-12-01T16:05:24.837Z,3.10
2018-12-01T16:07:53.370Z,5.97
2018-12-01T16:10:21.588Z,6.80
2018-12-01T16:12:54.570Z,2.30
2018-12-01T16:15:24.328Z,32.38
2018-12-01T16:17:51.653Z,46.05
2018-12-01T16:20:18.993Z,9.10
2018-12-01T16:22:46.377Z,6.70
2018-12-01T16:25:15.010Z,3.25
2018-12-01T16:27:43.403Z,3.25
2018-12-01T16:30:24.998Z,3.58
2018-12-01T16:32:53.881Z,7.78
2018-12-01T16:35:21.266Z,8.18
2018-12-01T16:37:48.657Z,4.12
2018-12-01T16:40:28.550Z,5.85
2018-12-01T16:42:57.250Z,4.17
2018-12-01T16:45:25.374Z,3.75
2018-12-01T16:47:52.769Z,3.85
2018-12-01T16:50:20.116Z,4.55
2018-12-01T16:52:47.476Z,3.83
2018-12-01T16:55:15.915Z,4.22
2018-12-01T16:57:44.360Z,4.75
2018-12-01T17:00:16.753Z,6.55
2018-12-01T17:02:45.469Z,4.15
2018-12-01T17:05:14.138Z,4.42
2018-12-01T17:07:41.511Z,4.83
2018-12-01T17:10:11.646Z,6.35
2018-12-01T17:12:39.059Z,4.78
2018-12-01T17:15:10.838Z,6.62
2018-12-01T17:17:38.264Z,5.15
2018-12-01T17:20:08.500Z,5.15
2018-12-01T17:22:35.851Z,9.65
2018-12-01T17:25:04.631Z,6.20
2018-12-01T17:27:31.958Z,5.90
2018-12-01T17:29:59.285Z,5.92
2018-12-01T17:32:26.654Z,7.08
2018-12-01T17:34:53.993Z,6.50
2018-12-01T17:37:21.400Z,4.95
2018-12-01T17:39:48.750Z,6.20
2018-12-01T17:42:16.159Z,10.80
2018-12-01T17:44:43.559Z,11.93
2018-12-01T17:47:11.619Z,20.68
2018-12-01T17:49:39.492Z,14.45
2018-12-01T17:52:07.682Z,12.23
2018-12-01T17:54:35.053Z,20.35
2018-12-01T17:57:02.469Z,13.35
2018-12-01T17:59:30.375Z,10.68
2018-12-01T18:01:57.729Z,8.20
2018-12-01T18:04:25.734Z,11.60
2018-12-01T18:06:53.698Z,12.80
2018-12-01T18:09:21.041Z,15.63
2018-12-01T18:11:48.375Z,14.98
2018-12-01T18:14:15.739Z,12.68
2018-12-01T18:16:43.057Z,19.60
2018-12-01T18:19:11.109Z,18.92
2018-12-01T18:21:37.766Z,18.60
2018-12-01T18:24:05.306Z,10.95
2018-12-01T18:26:32.657Z,12.30
2018-12-01T18:29:00.018Z,9.78
2018-12-01T18:31:27.750Z,14.58
2018-12-01T18:34:00.024Z,11.83
2018-12-01T18:36:27.398Z,12.50
2018-12-01T18:38:54.967Z,10.75
2018-12-01T18:41:22.347Z,12.03
2018-12-01T18:43:49.757Z,12.88
2018-12-01T18:46:17.158Z,10.23
2018-12-01T18:48:45.191Z,11.97
2018-12-01T18:51:13.486Z,15.68
2018-12-01T18:53:40.832Z,14.18
2018-12-01T18:56:08.218Z,13.88
2018-12-01T18:58:35.582Z,15.72
2018-12-01T19:01:02.974Z,10.78
2018-12-01T19:03:32.094Z,11.35
2018-12-01T19:05:59.541Z,14.20
2018-12-01T19:08:26.959Z,15.63
2018-12-01T19:10:54.437Z,11.30
2018-12-01T19:13:21.803Z,21.77
2018-12-01T19:15:49.143Z,12.07
2018-12-01T19:18:16.510Z,9.38
2018-12-01T19:20:43.890Z,9.43
2018-12-01T19:23:12.760Z,11.20
2018-12-01T19:25:42.558Z,20.17
2018-12-01T19:28:09.983Z,9.38
2018-12-01T19:30:37.366Z,17.57
2018-12-01T19:33:11.970Z,17.42
2018-12-01T19:35:39.982Z,14.18
2018-12-01T19:38:09.010Z,13.43
2018-12-01T19:40:36.614Z,10.95
2018-12-01T19:43:04.125Z,12.07
2018-12-01T19:45:31.802Z,15.58
2018-12-01T19:47:59.176Z,13.32
2018-12-01T19:50:33.926Z,9.50
2018-12-01T19:53:01.329Z,8.95
2018-12-01T19:55:29.160Z,9.53
2018-12-01T19:57:56.498Z,10.48
2018-12-01T20:00:25.239Z,7.83
2018-12-01T20:02:52.753Z,13.00
2018-12-01T20:05:20.762Z,26.93
2018-12-01T20:07:49.121Z,13.70
2018-12-01T20:10:24.782Z,8.88
2018-12-01T20:12:55.575Z,11.53
2018-12-01T20:15:24.994Z,7.85
2018-12-01T20:17:52.430Z,9.23
2018-12-01T20:20:19.819Z,12.37
2018-12-01T20:22:47.202Z,14.80
2018-12-01T20:25:14.675Z,12.90
2018-12-01T20:27:42.024Z,14.25
2018-12-01T20:30:12.882Z,15.08
2018-12-01T20:32:40.247Z,12.23
2018-12-01T20:35:08.554Z,9.40
2018-12-01T20:37:35.886Z,13.53
2018-12-01T20:40:06.645Z,9.90
2018-12-01T20:42:33.991Z,9.28
2018-12-01T20:45:01.396Z,7.30
2018-12-01T20:47:28.757Z,9.25
2018-12-01T20:49:56.135Z,7.15
2018-12-01T20:52:23.459Z,9.08
2018-12-01T20:54:50.814Z,7.92
2018-12-01T20:57:35.135Z,6.75
2018-12-01T21:00:02.548Z,6.60
2018-12-01T21:02:30.580Z,8.98
2018-12-01T21:04:57.967Z,6.30
2018-12-01T21:07:25.367Z,8.45
2018-12-01T21:09:52.747Z,6.95
2018-12-01T21:12:20.124Z,6.85
2018-12-01T21:14:47.492Z,6.80
2018-12-01T21:17:14.882Z,8.58
2018-12-01T21:19:42.242Z,5.95
2018-12-01T21:22:09.627Z,9.83
2018-12-01T21:24:36.966Z,7.92
2018-12-01T21:27:04.748Z,7.42
2018-12-01T21:29:32.202Z,74.67
2018-12-01T21:31:59.578Z,20.77
2018-12-01T21:34:26.935Z,6.90
2018-12-01T21:36:54.275Z,7.67
2018-12-01T21:39:21.627Z,6.42
2018-12-01T21:41:49.007Z,7.75
2018-12-01T21:44:16.822Z,6.12
2018-12-01T21:46:44.161Z,4.80
2018-12-01T21:49:12.299Z,4.55
2018-12-01T21:51:39.672Z,4.08
2018-12-01T21:54:07.006Z,4.50
2018-12-01T21:56:34.354Z,3.47
2018-12-01T21:59:01.725Z,4.47
2018-12-01T22:01:29.066Z,4.67
2018-12-01T22:03:56.447Z,4.85
2018-12-01T22:06:24.290Z,4.80
2018-12-01T22:08:51.634Z,3.77
2018-12-01T22:11:18.959Z,3.80
2018-12-01T22:13:46.323Z,3.60
2018-12-01T22:16:13.704Z,3.35
2018-12-01T22:18:41.067Z,5.20
2018-12-01T22:21:08.502Z,4.60
2018-12-01T22:23:35.895Z,3.85
2018-12-01T22:26:03.244Z,4.55
2018-12-01T22:28:35.369Z,4.05
2018-12-01T22:30:58.065Z,4.97
2018-12-01T22:33:26.482Z,3.92
2018-12-01T22:35:54.238Z,3.65
2018-12-01T22:38:22.175Z,3.40
2018-12-01T22:40:49.505Z,6.53
2018-12-01T22:43:16.866Z,3.77
2018-12-01T22:45:44.208Z,3.58
2018-12-01T22:48:13.167Z,4.95
2018-12-01T22:50:42.052Z,4.20
2018-12-01T22:53:09.411Z,4.70
2018-12-01T22:55:37.468Z,5.47
2018-12-01T22:58:08.915Z,4.75
2018-12-01T23:01:08.277Z,4.05
2018-12-01T23:03:39.112Z,4.28
2018-12-01T23:06:06.439Z,3.45
2018-12-01T23:08:33.805Z,3.70
2018-12-01T23:11:01.154Z,5.10
2018-12-01T23:13:31.607Z,6.58
2018-12-01T23:15:59.024Z,3.30
2018-12-01T23:18:26.691Z,4.90
2018-12-01T23:20:54.019Z,3.37
2018-12-01T23:23:21.340Z,4.50
2018-12-01T23:25:48.639Z,3.50
2018-12-01T23:28:15.920Z,3.62
2018-12-01T23:30:51.797Z,4.60
2018-12-01T23:33:21.113Z,4.10
2018-12-01T23:35:48.513Z,3.92
2018-12-01T23:38:15.938Z,5.92
2018-12-01T23:40:43.327Z,5.58
2018-12-01T23:43:10.703Z,6.62
2018-12-01T23:45:39.474Z,5.62
2018-12-01T23:48:06.820Z,4.67
2018-12-01T23:50:34.356Z,6.60
2018-12-01T23:53:08.332Z,4.50
2018-12-01T23:55:35.853Z,3.62
2018-12-01T23:58:03.247Z,4.00
